createdAt,value
2023-02-19T00:04:35.626Z,4.87
2023-02-19T00:09:37.193Z,4.77
2023-02-19T00:14:39.192Z,4.67
2023-02-19T00:19:40.849Z,4.87
2023-02-19T00:24:42.419Z,4.80
2023-02-19T00:29:44.226Z,5.40
2023-02-19T00:34:45.847Z,7.13
2023-02-19T00:39:56.451Z,4.93
2023-02-19T00:44:58.200Z,4.57
2023-02-19T00:49:59.818Z,3.67
2023-02-19T00:55:01.927Z,3.87
2023-02-19T01:00:04.436Z,4.03
2023-02-19T01:05:06.434Z,3.90
2023-02-19T01:10:11.164Z,4.23
2023-02-19T01:15:12.900Z,3.60
2023-02-19T01:20:14.655Z,3.33
2023-02-19T01:25:16.463Z,3.70
2023-02-19T01:30:18.262Z,3.47
2023-02-19T01:35:19.988Z,3.50
2023-02-19T01:40:21.888Z,3.50
2023-02-19T01:45:30.848Z,3.33
2023-02-19T01:50:37.955Z,3.63
2023-02-19T01:55:41.010Z,3.57
2023-02-19T02:00:48.057Z,3.90
2023-02-19T02:05:59.425Z,3.30
2023-02-19T02:11:01.172Z,3.07
2023-02-19T02:16:32.723Z,3.17
2023-02-19T02:21:55.528Z,3.30
2023-02-19T02:27:31.058Z,2.73
2023-02-19T02:32:42.821Z,2.70
2023-02-19T02:37:47.081Z,3.00
2023-02-19T02:42:48.831Z,3.17
2023-02-19T02:47:56.755Z,3.20
2023-02-19T02:53:23.613Z,3.63
2023-02-19T02:58:27.920Z,3.40
2023-02-19T03:03:31.780Z,2.97
2023-02-19T03:08:45.675Z,2.97
2023-02-19T03:14:05.927Z,3.17
2023-02-19T03:19:21.822Z,2.60
2023-02-19T03:24:48.424Z,2.90
2023-02-19T03:29:54.616Z,2.73
2023-02-19T03:35:06.510Z,2.43
2023-02-19T03:40:08.900Z,3.00
2023-02-19T03:45:43.049Z,2.33
2023-02-19T03:50:50.021Z,2.67
2023-02-19T03:56:34.034Z,2.80
2023-02-19T04:02:11.649Z,2.90
2023-02-19T04:07:13.779Z,2.80
2023-02-19T04:12:16.745Z,2.50
2023-02-19T04:17:48.462Z,3.40
2023-02-19T04:22:57.815Z,2.50
2023-02-19T04:27:59.502Z,2.30
2023-02-19T04:33:05.001Z,2.77
2023-02-19T04:38:06.758Z,2.40
2023-02-19T04:43:08.443Z,2.40
2023-02-19T04:48:10.415Z,2.37
2023-02-19T04:53:12.100Z,2.60
2023-02-19T04:58:13.851Z,2.40
2023-02-19T05:03:18.650Z,2.43
2023-02-19T05:08:20.532Z,2.70
2023-02-19T05:13:22.339Z,2.77
2023-02-19T05:18:24.150Z,2.90
2023-02-19T05:23:27.155Z,2.83
2023-02-19T05:28:29.105Z,3.10
2023-02-19T05:33:31.147Z,2.90
2023-02-19T05:38:32.846Z,2.90
2023-02-19T05:43:34.674Z,3.00
2023-02-19T05:48:36.732Z,2.87
2023-02-19T05:53:39.501Z,3.20
2023-02-19T05:58:41.127Z,2.80
2023-02-19T06:03:43.053Z,3.00
2023-02-19T06:08:44.907Z,3.30
2023-02-19T06:13:47.301Z,3.67
2023-02-19T06:18:49.085Z,3.07
2023-02-19T06:23:50.949Z,3.30
2023-02-19T06:28:53.548Z,2.80
2023-02-19T06:33:55.484Z,3.00
2023-02-19T06:39:00.817Z,2.83
2023-02-19T06:44:02.642Z,2.90
2023-02-19T06:49:05.623Z,3.13
2023-02-19T06:54:07.529Z,3.00
2023-02-19T06:59:19.231Z,3.37
2023-02-19T07:04:23.780Z,3.00
2023-02-19T07:09:25.542Z,3.77
2023-02-19T07:14:29.466Z,3.60
2023-02-19T07:19:31.257Z,3.40
2023-02-19T07:24:33.009Z,3.20
2023-02-19T07:29:34.782Z,3.50
2023-02-19T07:34:36.651Z,5.10
2023-02-19T07:39:38.592Z,3.97
2023-02-19T07:44:40.287Z,3.40
2023-02-19T07:49:41.895Z,3.67
2023-02-19T07:54:43.629Z,3.87
2023-02-19T07:59:45.451Z,3.60
2023-02-19T08:04:47.705Z,4.77
2023-02-19T08:10:09.317Z,4.47
2023-02-19T08:15:11.051Z,4.77
2023-02-19T08:20:12.857Z,3.73
2023-02-19T08:25:14.548Z,4.00
2023-02-19T08:30:16.326Z,3.50
2023-02-19T08:35:18.040Z,4.27
2023-02-19T08:40:19.830Z,3.87
2023-02-19T08:45:24.307Z,3.50
2023-02-19T08:50:26.847Z,3.63
2023-02-19T08:55:28.816Z,4.20
2023-02-19T09:00:30.750Z,3.10
2023-02-19T09:05:32.572Z,4.00
2023-02-19T09:10:37.132Z,4.80
2023-02-19T09:15:39.080Z,4.77
2023-02-19T09:20:40.820Z,3.97
2023-02-19T09:25:42.775Z,4.20
2023-02-19T09:30:44.515Z,4.93
2023-02-19T09:35:46.246Z,4.27
2023-02-19T09:40:48.026Z,5.67
2023-02-19T09:46:03.119Z,4.80
2023-02-19T09:51:06.965Z,4.13
2023-02-19T09:56:09.359Z,4.60
2023-02-19T10:01:12.501Z,3.80
2023-02-19T10:06:20.497Z,5.47
2023-02-19T10:11:25.854Z,4.53
2023-02-19T10:16:29.120Z,4.13
2023-02-19T10:21:33.578Z,6.33
2023-02-19T10:26:36.523Z,6.17
2023-02-19T10:31:38.391Z,6.60
2023-02-19T10:36:42.568Z,4.00
2023-02-19T10:41:46.967Z,6.23
2023-02-19T10:46:52.065Z,4.73
2023-02-19T10:51:56.770Z,4.97
2023-02-19T10:57:17.524Z,5.27
2023-02-19T11:06:30.286Z,6.70
2023-02-19T11:11:38.711Z,5.60
2023-02-19T11:17:03.960Z,4.70
2023-02-19T11:22:33.307Z,5.77
2023-02-19T11:27:34.949Z,11.50
2023-02-19T11:32:36.809Z,5.43
2023-02-19T11:37:57.838Z,4.70
2023-02-19T11:43:26.919Z,4.90
2023-02-19T11:48:54.897Z,4.87
2023-02-19T11:54:05.278Z,7.10
2023-02-19T11:59:45.194Z,5.73
2023-02-19T12:05:16.911Z,6.73
2023-02-19T12:10:43.135Z,3.63
2023-02-19T12:16:13.446Z,3.97
2023-02-19T12:21:51.558Z,4.10
2023-02-19T12:27:08.558Z,10.17
2023-02-19T12:32:28.115Z,5.57
2023-02-19T12:37:32.750Z,7.27
2023-02-19T12:42:34.468Z,3.60
2023-02-19T12:47:40.912Z,3.40
2023-02-19T12:52:47.760Z,3.27
2023-02-19T12:57:51.271Z,3.90
2023-02-19T13:03:20.898Z,4.50
2023-02-19T13:08:29.277Z,3.70
2023-02-19T13:13:44.664Z,5.63
2023-02-19T13:18:57.121Z,7.07
2023-02-19T13:24:03.179Z,4.80
2023-02-19T13:29:22.744Z,5.77
2023-02-19T13:34:47.901Z,5.43
2023-02-19T13:39:55.616Z,7.33
2023-02-19T13:44:58.851Z,4.67
2023-02-19T13:50:07.293Z,6.67
2023-02-19T13:55:50.946Z,5.93
2023-02-19T14:00:53.929Z,4.67
2023-02-19T14:06:06.399Z,3.83
2023-02-19T14:11:08.864Z,6.03
2023-02-19T14:16:35.203Z,4.83
2023-02-19T14:21:39.749Z,3.67
2023-02-19T14:26:42.340Z,3.77
2023-02-19T14:31:46.830Z,5.37
2023-02-19T14:36:54.831Z,8.83
2023-02-19T14:42:02.909Z,5.87
2023-02-19T14:47:09.562Z,5.70
2023-02-19T14:52:20.799Z,6.07
2023-02-19T14:57:27.624Z,7.53
2023-02-19T15:02:31.225Z,10.63
2023-02-19T15:07:34.200Z,5.43
2023-02-19T15:12:40.919Z,5.73
2023-02-19T15:17:42.866Z,6.87
2023-02-19T15:22:46.286Z,7.80
2023-02-19T15:27:48.305Z,7.10
2023-02-19T15:32:58.755Z,7.80
2023-02-19T15:38:01.215Z,8.90
2023-02-19T15:43:03.094Z,7.67
2023-02-19T15:48:11.798Z,9.50
2023-02-19T15:53:18.893Z,6.53
2023-02-19T15:58:33.379Z,7.80
2023-02-19T16:03:35.794Z,8.40
2023-02-19T16:08:39.853Z,8.23
2023-02-19T16:13:41.526Z,7.07
2023-02-19T16:18:48.834Z,6.27
2023-02-19T16:23:59.482Z,9.00
2023-02-19T16:29:01.236Z,5.90
2023-02-19T16:34:17.846Z,6.63
2023-02-19T16:39:20.957Z,6.03
2023-02-19T16:44:25.834Z,6.77
2023-02-19T16:49:27.521Z,6.47
2023-02-19T16:54:29.313Z,7.73
2023-02-19T16:59:31.057Z,7.07
2023-02-19T17:04:32.777Z,6.97
2023-02-19T17:09:34.589Z,5.80
2023-02-19T17:14:36.182Z,5.50
2023-02-19T17:19:39.322Z,5.10
2023-02-19T17:24:40.939Z,8.53
2023-02-19T17:29:42.878Z,9.87
2023-02-19T17:34:44.726Z,5.20
2023-02-19T17:39:46.378Z,5.07
2023-02-19T17:44:48.089Z,8.53
2023-02-19T17:49:49.698Z,5.43
2023-02-19T17:54:51.416Z,10.80
2023-02-19T17:59:53.101Z,7.93
2023-02-19T18:04:54.809Z,7.70
2023-02-19T18:09:56.536Z,9.50
2023-02-19T18:14:58.402Z,7.17
2023-02-19T18:20:00.508Z,7.93
2023-02-19T18:25:02.262Z,5.27
2023-02-19T18:30:04.560Z,6.67
2023-02-19T18:35:06.630Z,5.87
2023-02-19T18:40:09.351Z,8.13
2023-02-19T18:45:11.176Z,6.33
2023-02-19T18:50:13.810Z,4.63
2023-02-19T18:55:15.505Z,8.40
2023-02-19T19:00:26.556Z,7.73
2023-02-19T19:05:28.735Z,5.30
2023-02-19T19:10:30.986Z,8.63
2023-02-19T19:15:32.825Z,7.00
2023-02-19T19:20:34.671Z,9.37
2023-02-19T19:25:37.399Z,6.33
2023-02-19T19:30:39.231Z,9.17
2023-02-19T19:35:41.037Z,9.63
2023-02-19T19:40:42.640Z,8.87
2023-02-19T19:45:44.391Z,7.70
2023-02-19T19:50:46.118Z,6.47
2023-02-19T19:55:47.834Z,8.97
2023-02-19T20:00:49.565Z,9.20
2023-02-19T20:05:51.345Z,6.97
2023-02-19T20:10:53.010Z,7.97
2023-02-19T20:15:54.880Z,7.77
2023-02-19T20:20:56.540Z,10.33
2023-02-19T20:25:58.215Z,8.17
2023-02-19T20:30:59.953Z,7.47
2023-02-19T20:36:01.581Z,5.00
2023-02-19T20:41:04.187Z,8.73
2023-02-19T20:46:07.129Z,5.80
2023-02-19T20:51:09.100Z,6.27
2023-02-19T20:56:11.931Z,6.00
2023-02-19T21:01:13.858Z,5.93
2023-02-19T21:06:15.590Z,7.23
2023-02-19T21:11:17.436Z,6.33
2023-02-19T21:16:20.071Z,6.50
2023-02-19T21:21:25.364Z,11.87
2023-02-19T21:26:38.382Z,7.40
2023-02-19T21:31:45.951Z,8.20
2023-02-19T21:36:49.127Z,9.17
2023-02-19T21:41:51.777Z,5.07
2023-02-19T21:46:53.544Z,7.27
2023-02-19T21:51:55.245Z,6.43
2023-02-19T21:56:56.953Z,7.77
2023-02-19T22:01:58.663Z,8.23
2023-02-19T22:07:00.394Z,6.67
2023-02-19T22:12:02.074Z,6.20
2023-02-19T22:17:03.746Z,7.37
2023-02-19T22:22:05.736Z,7.97
2023-02-19T22:27:07.503Z,9.00
2023-02-19T22:32:09.416Z,8.93
2023-02-19T22:37:11.310Z,10.00
2023-02-19T22:42:12.991Z,8.87
2023-02-19T22:47:14.601Z,9.20
2023-02-19T22:52:16.347Z,9.53
2023-02-19T22:57:17.994Z,7.13
2023-02-19T23:02:19.731Z,7.90
2023-02-19T23:07:21.471Z,10.87
2023-02-19T23:12:23.306Z,8.57
2023-02-19T23:17:24.944Z,9.87
2023-02-19T23:22:26.639Z,8.90
2023-02-19T23:27:28.661Z,8.40
2023-02-19T23:32:30.404Z,8.87
2023-02-19T23:37:32.266Z,7.33
2023-02-19T23:42:34.027Z,6.83
2023-02-19T23:47:35.718Z,8.70
2023-02-19T23:52:37.427Z,10.83
2023-02-19T23:57:39.308Z,10.03
